createdAt,value
2023-03-26T00:01:25.306Z,52.20
2023-03-26T00:03:53.743Z,52.10
2023-03-26T00:06:22.897Z,52.30
2023-03-26T00:08:51.043Z,52.10
2023-03-26T00:11:19.824Z,52.30
2023-03-26T00:13:47.586Z,52.20
2023-03-26T00:16:16.946Z,52.30
2023-03-26T00:18:44.770Z,52.00
2023-03-26T00:21:14.839Z,52.10
2023-03-26T00:23:42.982Z,52.50
2023-03-26T00:26:11.105Z,52.10
2023-03-26T00:28:40.300Z,52.20
2023-03-26T00:31:09.738Z,52.10
2023-03-26T00:33:38.319Z,51.90
2023-03-26T00:36:09.901Z,52.70
2023-03-26T00:38:39.348Z,51.90
2023-03-26T00:41:17.645Z,52.30
2023-03-26T00:43:46.673Z,52.40
2023-03-26T00:46:13.821Z,52.50
2023-03-26T00:48:45.540Z,52.30
2023-03-26T00:51:17.498Z,52.40
2023-03-26T00:53:46.380Z,52.10
2023-03-26T00:56:13.587Z,52.20
2023-03-26T00:58:40.917Z,52.60
2023-03-26T01:01:13.597Z,52.70
2023-03-26T01:03:50.109Z,52.40
2023-03-26T01:06:32.896Z,52.70
2023-03-26T01:09:06.903Z,52.30
2023-03-26T01:11:35.326Z,52.70
2023-03-26T01:14:11.542Z,52.40
2023-03-26T01:16:45.073Z,52.70
2023-03-26T01:19:31.722Z,52.40
2023-03-26T01:21:58.974Z,52.30
2023-03-26T01:24:26.074Z,52.90
2023-03-26T01:27:05.111Z,53.10
2023-03-26T01:29:52.724Z,53.10
2023-03-26T01:32:38.375Z,53.40
2023-03-26T01:35:40.676Z,52.70
2023-03-26T01:38:13.265Z,52.40
2023-03-26T01:41:01.464Z,52.50
2023-03-26T01:43:34.705Z,52.50
2023-03-26T01:46:06.662Z,53.00
2023-03-26T01:48:39.762Z,52.50
2023-03-26T01:51:07.894Z,52.80
2023-03-26T01:53:47.370Z,52.90
2023-03-26T01:56:32.334Z,52.80
2023-03-26T01:59:16.186Z,52.60
2023-03-26T02:02:01.214Z,52.60
2023-03-26T02:04:53.449Z,53.20
2023-03-26T02:07:51.027Z,52.60
2023-03-26T02:10:27.410Z,53.30
2023-03-26T02:12:54.629Z,52.70
2023-03-26T02:15:22.072Z,53.40
2023-03-26T02:17:49.631Z,52.60
2023-03-26T02:20:18.851Z,52.90
2023-03-26T02:22:47.142Z,52.80
2023-03-26T02:25:19.133Z,52.80
2023-03-26T02:27:47.641Z,53.00
2023-03-26T02:30:18.297Z,53.10
2023-03-26T02:32:52.249Z,53.00
2023-03-26T02:35:21.976Z,53.00
2023-03-26T02:37:52.411Z,52.70
2023-03-26T02:40:22.268Z,53.10
2023-03-26T02:42:50.294Z,53.30
2023-03-26T02:45:17.209Z,53.00
2023-03-26T02:48:02.589Z,53.10
2023-03-26T02:50:54.135Z,52.90
2023-03-26T02:53:44.051Z,53.20
2023-03-26T02:56:34.136Z,53.50
2023-03-26T02:59:15.697Z,53.50
2023-03-26T03:01:44.984Z,53.20
2023-03-26T03:04:13.948Z,53.50
2023-03-26T03:06:41.544Z,53.10
2023-03-26T03:09:11.138Z,53.00
2023-03-26T03:11:57.933Z,53.20
2023-03-26T03:14:24.712Z,53.50
2023-03-26T03:16:53.824Z,53.20
2023-03-26T03:19:22.094Z,53.30
2023-03-26T03:21:48.988Z,53.60
2023-03-26T03:24:18.405Z,53.30
2023-03-26T03:26:47.676Z,53.20
2023-03-26T03:29:34.665Z,53.60
2023-03-26T03:32:30.825Z,53.80
2023-03-26T03:35:01.641Z,53.10
2023-03-26T03:37:29.015Z,53.10
2023-03-26T03:39:57.909Z,53.30
2023-03-26T03:42:27.977Z,53.20
2023-03-26T03:44:57.542Z,53.30
2023-03-26T03:47:43.159Z,53.60
2023-03-26T03:50:11.189Z,54.00
2023-03-26T03:52:44.154Z,53.50
2023-03-26T03:55:13.887Z,53.40
2023-03-26T03:57:46.850Z,53.70
2023-03-26T04:00:19.797Z,53.40
2023-03-26T04:02:58.788Z,53.10
2023-03-26T04:05:27.932Z,53.00
2023-03-26T04:07:54.752Z,53.50
2023-03-26T04:10:43.169Z,53.40
2023-03-26T04:13:32.846Z,53.50
2023-03-26T04:16:19.051Z,53.30
2023-03-26T04:18:48.430Z,54.10
2023-03-26T04:21:15.911Z,53.50
2023-03-26T04:23:43.770Z,53.60
2023-03-26T04:26:31.316Z,53.30
2023-03-26T04:29:12.825Z,54.10
2023-03-26T04:31:39.809Z,53.30
2023-03-26T04:34:13.629Z,53.80
2023-03-26T04:36:54.438Z,54.00
2023-03-26T04:39:29.242Z,53.00
2023-03-26T04:42:19.846Z,53.80
2023-03-26T04:44:59.826Z,54.00
2023-03-26T04:47:28.969Z,53.90
2023-03-26T04:49:55.985Z,53.60
2023-03-26T04:52:23.205Z,53.50
2023-03-26T04:55:27.902Z,53.70
2023-03-26T04:58:05.487Z,53.60
2023-03-26T05:00:55.145Z,53.30
2023-03-26T05:03:22.098Z,53.70
2023-03-26T05:05:49.651Z,53.80
2023-03-26T05:08:16.684Z,54.10
2023-03-26T05:10:43.797Z,54.00
2023-03-26T05:13:15.421Z,53.90
2023-03-26T05:15:48.322Z,53.30
2023-03-26T05:18:23.941Z,53.80
2023-03-26T05:20:53.037Z,53.10
2023-03-26T05:23:20.437Z,53.50
2023-03-26T05:25:53.912Z,53.20
2023-03-26T05:28:25.598Z,53.10
2023-03-26T05:31:01.117Z,52.90
2023-03-26T05:33:32.388Z,53.20
2023-03-26T05:36:07.506Z,53.10
2023-03-26T05:38:35.782Z,52.90
2023-03-26T05:41:07.514Z,52.80
2023-03-26T05:43:36.642Z,52.70
2023-03-26T05:46:10.456Z,53.80
2023-03-26T05:48:38.246Z,53.50
2023-03-26T05:51:06.387Z,53.00
2023-03-26T05:53:33.832Z,52.80
2023-03-26T05:56:38.558Z,52.60
2023-03-26T05:59:28.120Z,53.30
2023-03-26T06:02:13.562Z,52.70
2023-03-26T06:04:59.127Z,52.80
2023-03-26T06:07:35.069Z,52.50
2023-03-26T06:10:17.991Z,52.90
2023-03-26T06:12:46.044Z,52.70
2023-03-26T06:15:13.102Z,53.00
2023-03-26T06:17:48.193Z,52.70
2023-03-26T06:20:32.693Z,53.20
2023-03-26T06:23:03.013Z,53.00
2023-03-26T06:25:59.541Z,52.80
2023-03-26T06:29:01.528Z,52.70
2023-03-26T06:31:44.900Z,52.90
2023-03-26T06:34:16.520Z,52.20
2023-03-26T06:36:43.521Z,52.60
2023-03-26T06:39:10.584Z,52.70
2023-03-26T06:41:43.873Z,52.40
2023-03-26T06:44:21.519Z,52.90
2023-03-26T06:47:14.317Z,52.80
2023-03-26T06:49:50.493Z,52.60
2023-03-26T06:52:37.834Z,52.80
2023-03-26T06:55:23.460Z,52.50
2023-03-26T06:58:14.030Z,52.30
2023-03-26T07:00:56.816Z,52.00
2023-03-26T07:03:42.230Z,52.70
2023-03-26T07:06:28.999Z,52.50
2023-03-26T07:09:14.547Z,52.50
2023-03-26T07:12:07.882Z,52.90
2023-03-26T07:15:05.606Z,52.10
2023-03-26T07:17:52.391Z,52.40
2023-03-26T07:20:31.070Z,53.00
2023-03-26T07:22:59.352Z,52.80
2023-03-26T07:25:49.650Z,53.00
2023-03-26T07:29:03.612Z,53.00
2023-03-26T07:32:18.472Z,53.00
2023-03-26T07:35:07.627Z,52.80
2023-03-26T07:38:32.880Z,53.00
2023-03-26T07:41:37.088Z,52.70
2023-03-26T07:44:54.580Z,52.60
2023-03-26T07:47:39.502Z,52.70
2023-03-26T07:50:19.100Z,53.00
2023-03-26T07:53:09.366Z,52.60
2023-03-26T07:56:17.888Z,53.10
2023-03-26T07:59:38.168Z,52.60
2023-03-26T08:02:41.288Z,52.60
2023-03-26T08:05:50.329Z,52.50
2023-03-26T08:08:58.769Z,52.50
2023-03-26T08:12:02.650Z,53.20
2023-03-26T08:14:51.796Z,52.50
2023-03-26T08:17:31.007Z,52.40
2023-03-26T08:20:22.850Z,52.60
2023-03-26T08:23:09.326Z,52.60
2023-03-26T08:25:51.270Z,52.50
2023-03-26T08:28:37.749Z,52.50
2023-03-26T08:31:13.648Z,52.50
2023-03-26T08:33:40.737Z,53.10
2023-03-26T08:36:15.661Z,52.90
2023-03-26T08:38:46.727Z,52.90
2023-03-26T08:41:46.795Z,52.90
2023-03-26T08:45:04.882Z,52.50
2023-03-26T08:47:56.971Z,52.50
2023-03-26T08:50:42.134Z,52.40
2023-03-26T08:53:43.503Z,53.10
2023-03-26T08:56:32.230Z,52.40
2023-03-26T08:59:34.174Z,52.40
2023-03-26T09:02:06.789Z,52.40
2023-03-26T09:05:25.264Z,52.60
2023-03-26T09:08:18.778Z,52.30
2023-03-26T09:10:53.232Z,52.30
2023-03-26T09:13:47.689Z,53.00
2023-03-26T09:16:26.143Z,52.30
2023-03-26T09:19:11.720Z,52.70
2023-03-26T09:22:02.731Z,52.70
2023-03-26T09:24:57.098Z,52.30
2023-03-26T09:27:59.468Z,52.30
2023-03-26T09:30:47.062Z,52.30
2023-03-26T09:33:16.688Z,52.30
2023-03-26T09:35:52.699Z,52.70
2023-03-26T09:38:33.302Z,52.30
2023-03-26T09:41:35.273Z,52.80
2023-03-26T09:44:19.934Z,52.80
2023-03-26T09:47:20.030Z,53.00
2023-03-26T09:50:00.628Z,52.20
2023-03-26T09:52:43.584Z,52.20
2023-03-26T09:55:28.269Z,52.10
2023-03-26T09:58:13.377Z,52.10
2023-03-26T10:01:11.067Z,52.30
2023-03-26T10:03:51.924Z,52.10
2023-03-26T10:06:39.280Z,52.10
2023-03-26T10:09:38.179Z,52.00
2023-03-26T10:12:13.870Z,52.00
2023-03-26T10:15:19.010Z,52.00
2023-03-26T10:18:27.563Z,52.00
2023-03-26T10:21:07.011Z,52.00
2023-03-26T10:24:01.349Z,52.30
2023-03-26T10:27:08.731Z,52.00
2023-03-26T10:29:41.502Z,51.90
2023-03-26T10:32:47.355Z,51.80
2023-03-26T10:35:41.907Z,51.90
2023-03-26T10:38:29.124Z,51.80
2023-03-26T10:41:22.463Z,51.80
2023-03-26T10:44:14.438Z,51.90
2023-03-26T10:47:00.119Z,51.80
2023-03-26T10:49:52.773Z,51.80
2023-03-26T10:52:47.710Z,51.80
2023-03-26T10:55:18.908Z,51.70
2023-03-26T10:57:50.403Z,52.60
2023-03-26T11:00:25.598Z,51.70
2023-03-26T11:03:20.576Z,51.80
2023-03-26T11:05:51.364Z,51.80
2023-03-26T11:08:31.706Z,52.00
2023-03-26T11:11:15.316Z,51.80
2023-03-26T11:13:55.500Z,51.70
2023-03-26T11:16:35.090Z,51.80
2023-03-26T11:19:11.741Z,52.00
2023-03-26T11:21:50.569Z,52.10
2023-03-26T11:24:47.389Z,51.70
2023-03-26T11:27:38.871Z,51.70
2023-03-26T11:30:18.372Z,52.10
2023-03-26T11:33:00.194Z,51.80
2023-03-26T11:35:41.774Z,51.90
2023-03-26T11:38:23.926Z,52.00
2023-03-26T11:40:54.173Z,51.80
2023-03-26T11:43:41.824Z,52.00
2023-03-26T11:46:14.535Z,52.20
2023-03-26T11:48:48.957Z,51.90
2023-03-26T11:51:39.967Z,52.30
2023-03-26T11:54:10.689Z,52.40
2023-03-26T11:57:04.764Z,52.30
2023-03-26T11:59:45.257Z,51.80
2023-03-26T12:02:35.561Z,51.70
2023-03-26T12:05:27.346Z,51.70
2023-03-26T12:07:59.383Z,51.80
2023-03-26T12:10:38.170Z,51.90
2023-03-26T12:13:37.399Z,51.70
2023-03-26T12:16:17.546Z,51.70
2023-03-26T12:18:46.730Z,51.70
2023-03-26T12:21:18.085Z,51.80
2023-03-26T12:23:56.263Z,51.70
2023-03-26T12:26:35.188Z,51.70
2023-03-26T12:29:09.593Z,51.70
2023-03-26T12:31:46.786Z,52.20
2023-03-26T12:34:16.659Z,51.70
2023-03-26T12:37:30.290Z,51.80
2023-03-26T12:40:35.679Z,51.90
2023-03-26T12:44:54.550Z,51.70
2023-03-26T12:47:55.499Z,51.70
2023-03-26T12:48:44.327Z,52.40
2023-03-26T12:51:38.127Z,52.20
2023-03-26T12:54:28.713Z,51.80
2023-03-26T12:57:12.164Z,51.80
2023-03-26T12:59:57.285Z,52.00
2023-03-26T13:02:41.268Z,51.80
2023-03-26T13:05:26.697Z,51.70
2023-03-26T13:07:53.476Z,51.70
2023-03-26T13:10:29.311Z,51.70
2023-03-26T13:13:39.844Z,52.00
2023-03-26T13:16:34.689Z,51.60
2023-03-26T13:19:26.991Z,51.70
2023-03-26T13:22:21.923Z,51.70
2023-03-26T13:25:25.588Z,52.00
2023-03-26T13:28:21.668Z,51.70
2023-03-26T13:31:04.243Z,51.70
2023-03-26T13:34:08.742Z,51.70
2023-03-26T13:36:59.930Z,51.60
2023-03-26T13:39:37.760Z,51.60
2023-03-26T13:42:23.223Z,51.70
2023-03-26T13:45:18.541Z,51.60
2023-03-26T13:47:52.080Z,51.60
2023-03-26T13:50:30.404Z,51.70
2023-03-26T13:53:06.327Z,51.50
2023-03-26T13:55:46.000Z,52.10
2023-03-26T13:58:34.749Z,52.10
2023-03-26T14:01:16.615Z,52.20
2023-03-26T14:04:02.450Z,51.60
2023-03-26T14:06:57.477Z,51.60
2023-03-26T14:09:33.531Z,51.60
2023-03-26T14:12:27.376Z,51.60
2023-03-26T14:15:03.882Z,51.60
2023-03-26T14:17:56.626Z,51.70
2023-03-26T14:21:25.500Z,51.60
2023-03-26T14:24:16.739Z,51.60
2023-03-26T14:27:09.832Z,51.60
2023-03-26T14:29:56.666Z,51.60
2023-03-26T14:33:05.847Z,51.50
2023-03-26T14:35:37.321Z,51.60
2023-03-26T14:38:53.831Z,51.60
2023-03-26T14:41:25.510Z,51.60
2023-03-26T14:43:52.164Z,51.70
2023-03-26T14:46:50.252Z,52.20
2023-03-26T14:49:46.424Z,51.70
2023-03-26T14:52:34.158Z,51.70
2023-03-26T14:55:07.639Z,51.70
2023-03-26T14:57:52.439Z,51.70
2023-03-26T15:00:31.505Z,51.70
2023-03-26T15:03:25.932Z,51.70
2023-03-26T15:06:21.018Z,51.70
2023-03-26T15:09:25.847Z,51.80
2023-03-26T15:12:13.106Z,51.70
2023-03-26T15:15:07.065Z,51.80
2023-03-26T15:17:58.207Z,51.90
2023-03-26T15:20:55.901Z,51.70
2023-03-26T15:23:28.789Z,51.70
2023-03-26T15:26:20.301Z,51.70
2023-03-26T15:28:53.049Z,51.80
2023-03-26T15:31:20.989Z,51.70
2023-03-26T15:34:12.696Z,51.70
2023-03-26T15:36:53.837Z,51.70
2023-03-26T15:39:44.219Z,51.70
2023-03-26T15:42:48.225Z,51.70
2023-03-26T15:45:14.993Z,51.70
2023-03-26T15:47:51.459Z,52.30
2023-03-26T15:50:37.892Z,51.60
2023-03-26T15:53:29.825Z,51.70
2023-03-26T15:56:29.637Z,51.60
2023-03-26T15:59:02.590Z,51.50
2023-03-26T16:01:48.338Z,52.20
2023-03-26T16:04:35.833Z,51.50
2023-03-26T16:07:23.808Z,51.50
2023-03-26T16:09:59.790Z,51.60
2023-03-26T16:12:30.779Z,51.30
2023-03-26T16:15:07.310Z,51.40
2023-03-26T16:18:12.198Z,52.30
2023-03-26T16:21:01.836Z,51.10
2023-03-26T16:23:47.957Z,51.10
2023-03-26T16:26:47.225Z,51.00
2023-03-26T16:29:18.050Z,51.10
2023-03-26T16:32:18.540Z,51.10
2023-03-26T16:34:54.819Z,51.00
2023-03-26T16:37:35.505Z,51.10
2023-03-26T16:40:17.416Z,51.10
2023-03-26T16:43:14.516Z,51.00
2023-03-26T16:46:00.345Z,50.90
2023-03-26T16:48:38.184Z,50.90
2023-03-26T16:51:12.315Z,50.90
2023-03-26T16:53:46.186Z,50.90
2023-03-26T16:56:27.810Z,50.90
2023-03-26T16:59:31.016Z,50.80
2023-03-26T17:02:13.578Z,50.80
2023-03-26T17:04:47.418Z,50.90
2023-03-26T17:07:28.794Z,51.30
2023-03-26T17:10:03.263Z,51.00
2023-03-26T17:12:46.413Z,50.80
2023-03-26T17:15:36.334Z,50.90
2023-03-26T17:18:16.605Z,50.70
2023-03-26T17:21:11.646Z,51.00
2023-03-26T17:24:02.701Z,50.70
2023-03-26T17:26:55.870Z,50.70
2023-03-26T17:29:49.216Z,50.70
2023-03-26T17:32:17.486Z,50.60
2023-03-26T17:34:50.376Z,50.90
2023-03-26T17:37:17.125Z,51.40
2023-03-26T17:39:45.359Z,51.20
2023-03-26T17:42:35.552Z,50.90
2023-03-26T17:45:25.000Z,50.50
2023-03-26T17:48:05.051Z,50.50
2023-03-26T17:50:52.173Z,50.90
2023-03-26T17:53:29.354Z,50.30
2023-03-26T17:56:03.073Z,50.30
2023-03-26T17:58:36.706Z,50.30
2023-03-26T18:01:25.807Z,50.40
2023-03-26T18:03:56.413Z,50.40
2023-03-26T18:06:51.638Z,51.00
2023-03-26T18:09:37.037Z,50.40
2023-03-26T18:12:40.806Z,50.80
2023-03-26T18:15:30.038Z,49.80
2023-03-26T18:18:30.568Z,50.30
2023-03-26T18:21:00.364Z,50.20
2023-03-26T18:23:47.675Z,50.60
2023-03-26T18:26:19.754Z,50.70
2023-03-26T18:28:52.958Z,50.50
2023-03-26T18:31:24.878Z,50.40
2023-03-26T18:33:58.906Z,50.20
2023-03-26T18:36:27.819Z,50.00
2023-03-26T18:39:00.790Z,50.60
2023-03-26T18:41:32.606Z,50.70
2023-03-26T18:44:05.458Z,50.60
2023-03-26T18:46:33.991Z,49.70
2023-03-26T18:49:02.759Z,49.70
2023-03-26T18:51:31.847Z,50.20
2023-03-26T18:54:02.773Z,49.90
2023-03-26T18:56:38.523Z,49.80
2023-03-26T18:59:21.772Z,49.70
2023-03-26T19:01:50.862Z,49.50
2023-03-26T19:04:18.320Z,49.60
2023-03-26T19:06:46.079Z,49.70
2023-03-26T19:09:30.435Z,50.00
2023-03-26T19:12:16.560Z,50.00
2023-03-26T19:15:13.910Z,49.50
2023-03-26T19:17:47.139Z,49.90
2023-03-26T19:20:21.593Z,50.10
2023-03-26T19:22:49.214Z,50.50
2023-03-26T19:25:39.506Z,49.60
2023-03-26T19:28:13.890Z,49.10
2023-03-26T19:30:42.043Z,49.60
2023-03-26T19:33:18.163Z,49.40
2023-03-26T19:35:50.728Z,49.10
2023-03-26T19:38:29.100Z,49.20
2023-03-26T19:40:57.796Z,49.10
2023-03-26T19:43:26.174Z,49.20
2023-03-26T19:45:59.989Z,49.80
2023-03-26T19:48:46.457Z,49.70
2023-03-26T19:51:20.950Z,50.10
2023-03-26T19:53:55.625Z,49.50
2023-03-26T19:56:23.073Z,48.90
2023-03-26T19:58:52.696Z,49.00
2023-03-26T20:01:22.474Z,49.00
2023-03-26T20:03:52.816Z,49.10
2023-03-26T20:06:30.898Z,48.80
2023-03-26T20:09:05.200Z,49.30
2023-03-26T20:11:38.657Z,49.00
2023-03-26T20:14:15.829Z,48.70
2023-03-26T20:16:44.985Z,48.70
2023-03-26T20:19:13.736Z,48.70
2023-03-26T20:21:41.229Z,48.90
2023-03-26T20:24:17.797Z,49.00
2023-03-26T20:26:48.126Z,48.60
2023-03-26T20:29:15.746Z,49.00
2023-03-26T20:31:43.226Z,48.60
2023-03-26T20:34:18.658Z,48.70
2023-03-26T20:36:46.546Z,48.50
2023-03-26T20:39:14.013Z,48.60
2023-03-26T20:41:45.429Z,48.70
2023-03-26T20:44:15.669Z,49.20
2023-03-26T20:46:44.103Z,48.60
2023-03-26T20:49:11.968Z,49.00
2023-03-26T20:51:41.655Z,48.80
2023-03-26T20:54:23.762Z,49.00
2023-03-26T20:56:51.626Z,48.50
2023-03-26T20:59:26.407Z,49.40
2023-03-26T21:01:54.790Z,48.60
2023-03-26T21:04:22.091Z,49.00
2023-03-26T21:06:49.097Z,49.60
2023-03-26T21:09:19.039Z,49.60
2023-03-26T21:12:17.812Z,48.60
2023-03-26T21:14:44.951Z,48.50
2023-03-26T21:17:16.800Z,48.60
2023-03-26T21:19:44.313Z,49.60
2023-03-26T21:22:25.524Z,48.60
2023-03-26T21:25:03.331Z,48.60
2023-03-26T21:27:40.052Z,49.50
2023-03-26T21:30:13.722Z,49.10
2023-03-26T21:32:41.512Z,48.80
2023-03-26T21:35:09.121Z,49.10
2023-03-26T21:37:37.463Z,48.80
2023-03-26T21:40:15.000Z,48.90
2023-03-26T21:42:42.792Z,48.90
2023-03-26T21:45:10.436Z,49.00
2023-03-26T21:47:37.538Z,49.00
2023-03-26T21:50:05.934Z,49.10
2023-03-26T21:52:33.346Z,49.20
2023-03-26T21:55:01.333Z,48.90
2023-03-26T21:57:44.334Z,49.30
2023-03-26T22:00:16.287Z,49.10
2023-03-26T22:03:01.616Z,49.90
2023-03-26T22:05:50.410Z,49.40
2023-03-26T22:08:30.464Z,49.30
2023-03-26T22:10:57.706Z,50.10
2023-03-26T22:13:25.497Z,50.10
2023-03-26T22:15:52.336Z,49.60
2023-03-26T22:18:24.405Z,50.40
2023-03-26T22:20:51.894Z,50.10
2023-03-26T22:23:18.814Z,49.90
2023-03-26T22:25:46.203Z,49.80
2023-03-26T22:28:13.670Z,49.80
2023-03-26T22:30:40.743Z,49.90
2023-03-26T22:33:11.873Z,49.50
2023-03-26T22:35:41.123Z,50.00
2023-03-26T22:38:09.533Z,50.20
2023-03-26T22:40:36.520Z,49.60
2023-03-26T22:43:03.966Z,49.80
2023-03-26T22:45:30.728Z,49.50
2023-03-26T22:48:03.778Z,50.00
2023-03-26T22:50:32.053Z,49.70
2023-03-26T22:52:58.884Z,49.50
2023-03-26T22:55:28.776Z,49.90
2023-03-26T22:57:57.073Z,50.00
2023-03-26T23:00:26.233Z,49.60
2023-03-26T23:02:53.228Z,49.90
2023-03-26T23:05:20.298Z,50.10
2023-03-26T23:07:48.775Z,50.20
2023-03-26T23:10:15.492Z,50.00
2023-03-26T23:12:42.328Z,49.60
2023-03-26T23:15:09.958Z,50.20
2023-03-26T23:17:37.826Z,49.70
2023-03-26T23:20:14.774Z,50.00
2023-03-26T23:22:43.565Z,49.70
2023-03-26T23:25:11.381Z,49.60
2023-03-26T23:27:39.896Z,50.30
2023-03-26T23:30:07.197Z,49.60
2023-03-26T23:32:38.194Z,49.90
2023-03-26T23:35:05.934Z,49.80
2023-03-26T23:37:34.789Z,49.80
2023-03-26T23:40:01.958Z,49.70
2023-03-26T23:42:29.737Z,50.80
2023-03-26T23:44:57.394Z,50.00
2023-03-26T23:47:24.513Z,49.70
2023-03-26T23:49:51.464Z,50.30
2023-03-26T23:52:18.679Z,51.00
2023-03-26T23:54:45.617Z,50.70
2023-03-26T23:57:12.677Z,50.20
2023-03-26T23:59:41.171Z,50.80
